ポンタ・デルガダ の空港の天気 - METARとTAF

ポンタ・デルガダ空港 ( LPPD / PDL ) - ポルトガル ポンタ・デルガダ (サンミゲル島)
飛行場実況気象(Metar)
観測時間04/25 14:30 AZOST (04/25 14:30 UTC)
風向・風速西南西 4m/s
視程10km以上
天気現象
少しの雲 雲底高度 610m
気温19℃
湿度78%
気圧1031hPa
METARLPPD 251430Z 24008KT 210V270 9999 FEW020 19/15 Q1031
過去の天気等 Google飛行場航空写真 Wunderground天気予報

過去48時間のMETAR

飛行場予報(TAF)
発表時間: 4/25 11:00 AZOST (4/25 11:00 UTC)
予報対象時間: 25日12時 AZOST ~ 26日12時 AZOST
風向・風速不定 3m/s
視程10km以上
全天の4割程度の雲 雲底高度 610m
全天の4割程度の雲 雲底高度 1,070m
25日12時 AZOST ~ 25日18時 AZOST に一時的に
風向・風速南西 4m/s
全天の8割程度の雲 雲底高度 460m
TAF LPPD 251100Z 2512/2612 VRB05KT 9999 SCT020 SCT035
TEMPO 2512/2518 22008KT BKN015